Kezdőlap
METAR-TAF:

METAR-TAF

Repülőterek :

Mc Elroy Airfield

Kremmling, Colorado, Amerikai Egyesült Államok

földrajzi szélesség: 40-03-13N, földrajzi hosszúság: 106-22-08W, magasság: 2259 m

Jelenlegi meteorológiai megfigyelések

A jelentés 29 perccel ezelõtt készült, 23:52 UTC
Nyugat-délnyugati szél 4 kt
Hőmérséklet 10°C
Páratartalom 32%
Légköri nyomás 1011 hPa
Látótávolság: 16.1 km
Szakadozott felhőzet 9000 lábon
Borult 11000 lábon

METAR: K20V 042352Z AUTO 24004KT 10SM BKN090 OVC110 10/M06 A2985 RMK AO2

Idő: 18:21 (00:21 UTC)


TAF: hiányzik

Meteorológiai megfigyelések és előrejelzések több, mint 4000 repülőtéren (METAR és TAF jelentéseket).

A térképen piros és sárga pontok jelzik az elérhető meteorológiai állomásokat.

Mozgassa az egeret a pont fölött, hogy megjelenjen az állomás neve.

Azután kattintson az időjárási megfigyelések és előrejelzések megtekintéséhez.

A térkép megváltoztatása: kattintson a fekete keresztel jelölt zöld gombra ráközelítéshez, a vonallal jelölt zöld gombra távolításhoz, vagy a zöld nyilakra a szomszédos térképek eléréséhez.


METAR-TAF: